sensor_id;sensor_type;location;lat;lon;timestamp;pressure;altitude;pressure_sealevel;temperature;humidity
45888;BME280;31595;51.418;7.572;2022-08-19T00:01:41;100006.69;;;18.77;70.96
45888;BME280;31595;51.418;7.572;2022-08-19T00:04:12;100024.44;;;18.77;70.95
45888;BME280;31595;51.418;7.572;2022-08-19T00:06:41;100026.84;;;18.75;70.97
45888;BME280;31595;51.418;7.572;2022-08-19T00:09:13;100032.84;;;18.74;70.75
45888;BME280;31595;51.418;7.572;2022-08-19T00:11:42;100028.72;;;18.67;70.62
45888;BME280;31595;51.418;7.572;2022-08-19T00:14:12;100031.47;;;18.64;70.50
45888;BME280;31595;51.418;7.572;2022-08-19T00:16:43;100036.66;;;18.58;70.92
45888;BME280;31595;51.418;7.572;2022-08-19T00:19:11;100036.16;;;18.53;70.99
45888;BME280;31595;51.418;7.572;2022-08-19T00:21:38;100030.91;;;18.51;71.08
45888;BME280;31595;51.418;7.572;2022-08-19T00:24:07;100035.72;;;18.51;71.07
45888;BME280;31595;51.418;7.572;2022-08-19T00:26:35;100032.09;;;18.50;71.45
45888;BME280;31595;51.418;7.572;2022-08-19T00:29:05;100031.31;;;18.53;71.25
45888;BME280;31595;51.418;7.572;2022-08-19T00:31:33;100028.13;;;18.55;71.05
45888;BME280;31595;51.418;7.572;2022-08-19T00:34:02;100015.63;;;18.52;71.11
45888;BME280;31595;51.418;7.572;2022-08-19T00:36:29;100018.00;;;18.50;71.22
45888;BME280;31595;51.418;7.572;2022-08-19T00:38:58;100012.78;;;18.52;71.01
45888;BME280;31595;51.418;7.572;2022-08-19T00:41:26;100013.97;;;18.51;71.18
45888;BME280;31595;51.418;7.572;2022-08-19T00:43:59;100016.34;;;18.49;71.31
45888;BME280;31595;51.418;7.572;2022-08-19T00:46:27;100020.75;;;18.46;71.52
45888;BME280;31595;51.418;7.572;2022-08-19T00:48:55;100012.66;;;18.45;71.41
45888;BME280;31595;51.418;7.572;2022-08-19T00:51:27;100021.13;;;18.45;71.37
45888;BME280;31595;51.418;7.572;2022-08-19T00:53:58;100018.31;;;18.45;71.68
45888;BME280;31595;51.418;7.572;2022-08-19T00:56:27;100016.28;;;18.45;71.56
45888;BME280;31595;51.418;7.572;2022-08-19T00:58:56;100014.69;;;18.44;71.66
45888;BME280;31595;51.418;7.572;2022-08-19T01:01:25;100015.13;;;18.46;71.18
45888;BME280;31595;51.418;7.572;2022-08-19T01:03:53;100019.13;;;18.45;71.09
45888;BME280;31595;51.418;7.572;2022-08-19T01:06:21;100022.34;;;18.44;71.00
45888;BME280;31595;51.418;7.572;2022-08-19T01:08:53;100028.78;;;18.44;70.75
45888;BME280;31595;51.418;7.572;2022-08-19T01:11:21;100020.47;;;18.29;71.11
45888;BME280;31595;51.418;7.572;2022-08-19T01:13:50;100024.13;;;18.29;71.13
45888;BME280;31595;51.418;7.572;2022-08-19T01:16:21;100022.09;;;18.30;71.15
45888;BME280;31595;51.418;7.572;2022-08-19T01:18:49;100026.94;;;18.29;71.26
45888;BME280;31595;51.418;7.572;2022-08-19T01:21:22;100015.59;;;18.25;71.44
45888;BME280;31595;51.418;7.572;2022-08-19T01:23:54;100018.41;;;18.25;71.45
45888;BME280;31595;51.418;7.572;2022-08-19T01:26:25;100017.59;;;18.25;71.60
45888;BME280;31595;51.418;7.572;2022-08-19T01:28:54;100020.03;;;18.26;71.58
45888;BME280;31595;51.418;7.572;2022-08-19T01:31:24;100018.72;;;18.20;71.66
45888;BME280;31595;51.418;7.572;2022-08-19T01:33:54;100017.84;;;18.16;71.87
45888;BME280;31595;51.418;7.572;2022-08-19T01:36:24;100006.56;;;18.16;71.72
45888;BME280;31595;51.418;7.572;2022-08-19T01:38:54;100004.16;;;18.15;71.95
45888;BME280;31595;51.418;7.572;2022-08-19T01:41:21;100012.53;;;18.11;72.11
45888;BME280;31595;51.418;7.572;2022-08-19T01:43:50;100005.28;;;18.10;72.16
45888;BME280;31595;51.418;7.572;2022-08-19T01:46:17;100009.34;;;18.13;72.02
45888;BME280;31595;51.418;7.572;2022-08-19T01:48:45;100002.91;;;18.12;72.11
45888;BME280;31595;51.418;7.572;2022-08-19T01:51:14;100008.53;;;18.12;71.69
45888;BME280;31595;51.418;7.572;2022-08-19T01:53:41;100000.09;;;18.12;71.85
45888;BME280;31595;51.418;7.572;2022-08-19T01:56:10;99997.25;;;18.12;71.47
45888;BME280;31595;51.418;7.572;2022-08-19T01:58:43;99993.56;;;18.08;71.70
45888;BME280;31595;51.418;7.572;2022-08-19T02:01:13;99984.69;;;18.06;72.04
45888;BME280;31595;51.418;7.572;2022-08-19T02:03:40;99981.41;;;18.04;71.84
45888;BME280;31595;51.418;7.572;2022-08-19T02:06:08;99987.44;;;18.02;71.61
45888;BME280;31595;51.418;7.572;2022-08-19T02:08:37;99985.78;;;18.01;71.77
45888;BME280;31595;51.418;7.572;2022-08-19T02:11:05;99988.59;;;18.01;71.50
45888;BME280;31595;51.418;7.572;2022-08-19T02:13:34;99987.78;;;18.01;71.58
45888;BME280;31595;51.418;7.572;2022-08-19T02:16:02;99991.38;;;17.98;71.65
45888;BME280;31595;51.418;7.572;2022-08-19T02:18:30;99985.34;;;17.99;71.72
45888;BME280;31595;51.418;7.572;2022-08-19T02:20:57;99995.88;;;18.02;71.37
45888;BME280;31595;51.418;7.572;2022-08-19T02:23:24;99999.06;;;18.01;71.75
45888;BME280;31595;51.418;7.572;2022-08-19T02:25:52;100004.69;;;18.01;71.56
45888;BME280;31595;51.418;7.572;2022-08-19T02:28:20;100006.22;;;17.95;71.44
45888;BME280;31595;51.418;7.572;2022-08-19T02:30:48;100006.16;;;17.91;71.48
45888;BME280;31595;51.418;7.572;2022-08-19T02:33:16;100003.72;;;17.90;71.59
45888;BME280;31595;51.418;7.572;2022-08-19T02:35:44;99998.09;;;17.90;71.67
45888;BME280;31595;51.418;7.572;2022-08-19T02:38:12;99990.81;;;17.89;71.97
45888;BME280;31595;51.418;7.572;2022-08-19T02:40:55;99986.38;;;17.88;72.17
45888;BME280;31595;51.418;7.572;2022-08-19T02:43:24;99996.44;;;17.89;71.96
45888;BME280;31595;51.418;7.572;2022-08-19T02:45:53;99993.63;;;17.89;72.16
45888;BME280;31595;51.418;7.572;2022-08-19T02:48:22;99998.00;;;17.86;72.33
45888;BME280;31595;51.418;7.572;2022-08-19T02:50:52;100001.63;;;17.87;72.28
45888;BME280;31595;51.418;7.572;2022-08-19T02:53:21;99991.56;;;17.85;72.37
45888;BME280;31595;51.418;7.572;2022-08-19T02:55:50;100001.59;;;17.83;72.44
45888;BME280;31595;51.418;7.572;2022-08-19T02:58:19;99999.59;;;17.83;72.22
45888;BME280;31595;51.418;7.572;2022-08-19T03:00:53;99998.38;;;17.84;72.34
45888;BME280;31595;51.418;7.572;2022-08-19T03:03:21;99997.56;;;17.84;72.22
45888;BME280;31595;51.418;7.572;2022-08-19T03:05:49;99999.09;;;17.81;72.35
45888;BME280;31595;51.418;7.572;2022-08-19T03:08:16;99994.66;;;17.80;72.22
45888;BME280;31595;51.418;7.572;2022-08-19T03:10:46;99997.03;;;17.78;72.25
45888;BME280;31595;51.418;7.572;2022-08-19T03:13:15;99997.03;;;17.78;72.34
45888;BME280;31595;51.418;7.572;2022-08-19T03:15:44;99996.97;;;17.75;72.45
45888;BME280;31595;51.418;7.572;2022-08-19T03:18:13;99989.59;;;17.67;72.61
45888;BME280;31595;51.418;7.572;2022-08-19T03:20:42;99984.03;;;17.70;72.54
45888;BME280;31595;51.418;7.572;2022-08-19T03:23:10;99980.38;;;17.70;72.44
45888;BME280;31595;51.418;7.572;2022-08-19T03:25:39;99988.03;;;17.69;72.36
45888;BME280;31595;51.418;7.572;2022-08-19T03:28:09;100000.06;;;17.66;72.39
45888;BME280;31595;51.418;7.572;2022-08-19T03:30:38;100009.56;;;17.58;72.60
45888;BME280;31595;51.418;7.572;2022-08-19T03:33:06;99993.47;;;17.58;72.54
45888;BME280;31595;51.418;7.572;2022-08-19T03:35:36;100003.97;;;17.61;72.48
45888;BME280;31595;51.418;7.572;2022-08-19T03:38:03;100001.47;;;17.56;72.56
45888;BME280;31595;51.418;7.572;2022-08-19T03:40:31;100011.09;;;17.55;72.81
45888;BME280;31595;51.418;7.572;2022-08-19T03:43:00;100010.28;;;17.55;72.67
45888;BME280;31595;51.418;7.572;2022-08-19T03:45:28;100001.47;;;17.56;72.73
45888;BME280;31595;51.418;7.572;2022-08-19T03:47:55;100003.16;;;17.61;72.47
45888;BME280;31595;51.418;7.572;2022-08-19T03:50:23;99999.59;;;17.64;72.37
45888;BME280;31595;51.418;7.572;2022-08-19T03:52:52;100000.78;;;17.63;72.29
45888;BME280;31595;51.418;7.572;2022-08-19T03:55:19;100020.06;;;17.61;72.42
45888;BME280;31595;51.418;7.572;2022-08-19T03:57:47;100018.00;;;17.58;72.38
45888;BME280;31595;51.418;7.572;2022-08-19T04:00:15;100019.16;;;17.57;72.55
45888;BME280;31595;51.418;7.572;2022-08-19T04:02:43;100016.72;;;17.55;72.67
45888;BME280;31595;51.418;7.572;2022-08-19T04:05:10;100015.19;;;17.58;72.58
45888;BME280;31595;51.418;7.572;2022-08-19T04:07:40;100016.00;;;17.58;72.48
45888;BME280;31595;51.418;7.572;2022-08-19T04:10:09;100015.56;;;17.56;72.76
45888;BME280;31595;51.418;7.572;2022-08-19T04:12:36;100023.13;;;17.52;73.13
45888;BME280;31595;51.418;7.572;2022-08-19T04:15:05;100017.13;;;17.54;73.19
45888;BME280;31595;51.418;7.572;2022-08-19T04:17:33;100016.69;;;17.52;73.39
45888;BME280;31595;51.418;7.572;2022-08-19T04:20:01;100022.00;;;17.57;73.62
45888;BME280;31595;51.418;7.572;2022-08-19T04:22:28;100012.38;;;17.58;73.43
45888;BME280;31595;51.418;7.572;2022-08-19T04:24:55;100007.19;;;17.60;73.34
45888;BME280;31595;51.418;7.572;2022-08-19T04:27:27;100014.78;;;17.59;73.20
45888;BME280;31595;51.418;7.572;2022-08-19T04:29:55;100016.13;;;17.65;72.85
45888;BME280;31595;51.418;7.572;2022-08-19T04:32:22;100020.13;;;17.64;72.45
45888;BME280;31595;51.418;7.572;2022-08-19T04:34:49;100024.13;;;17.63;72.51
45888;BME280;31595;51.418;7.572;2022-08-19T04:37:17;100022.94;;;17.64;72.70
45888;BME280;31595;51.418;7.572;2022-08-19T04:39:44;100024.19;;;17.67;72.39
45888;BME280;31595;51.418;7.572;2022-08-19T04:42:30;100027.00;;;17.67;72.38
45888;BME280;31595;51.418;7.572;2022-08-19T04:45:08;100025.84;;;17.68;72.17
45888;BME280;31595;51.418;7.572;2022-08-19T04:47:36;100021.69;;;17.62;72.42
45888;BME280;31595;51.418;7.572;2022-08-19T04:50:04;100020.66;;;17.70;72.23
45888;BME280;31595;51.418;7.572;2022-08-19T04:52:32;100021.91;;;17.73;72.35
45888;BME280;31595;51.418;7.572;2022-08-19T04:54:59;100033.16;;;17.73;72.32
45888;BME280;31595;51.418;7.572;2022-08-19T04:57:27;100040.41;;;17.74;72.52
45888;BME280;31595;51.418;7.572;2022-08-19T04:59:56;100030.41;;;17.76;72.36
45888;BME280;31595;51.418;7.572;2022-08-19T05:02:23;100030.84;;;17.78;72.30
45888;BME280;31595;51.418;7.572;2022-08-19T05:04:51;100033.38;;;17.83;71.92
45888;BME280;31595;51.418;7.572;2022-08-19T05:07:18;100029.38;;;17.84;71.73
45888;BME280;31595;51.418;7.572;2022-08-19T05:09:45;100032.69;;;17.90;71.50
45888;BME280;31595;51.418;7.572;2022-08-19T05:12:13;100036.75;;;17.93;71.12
45888;BME280;31595;51.418;7.572;2022-08-19T05:14:40;100033.50;;;17.91;71.02
45888;BME280;31595;51.418;7.572;2022-08-19T05:17:09;100041.66;;;17.96;71.07
45888;BME280;31595;51.418;7.572;2022-08-19T05:19:36;100036.03;;;17.96;71.19
45888;BME280;31595;51.418;7.572;2022-08-19T05:22:21;100046.53;;;17.99;71.29
45888;BME280;31595;51.418;7.572;2022-08-19T05:25:02;100049.44;;;18.02;71.34
45888;BME280;31595;51.418;7.572;2022-08-19T05:27:31;100051.88;;;18.04;71.21
45888;BME280;31595;51.418;7.572;2022-08-19T05:29:58;100049.50;;;18.06;71.20
45888;BME280;31595;51.418;7.572;2022-08-19T05:32:27;100050.38;;;18.10;71.40
45888;BME280;31595;51.418;7.572;2022-08-19T05:34:55;100058.06;;;18.13;71.71
45888;BME280;31595;51.418;7.572;2022-08-19T05:37:22;100057.63;;;18.11;72.11
45888;BME280;31595;51.418;7.572;2022-08-19T05:39:53;100048.09;;;18.19;72.17
45888;BME280;31595;51.418;7.572;2022-08-19T05:42:21;100052.34;;;18.33;72.27
45888;BME280;31595;51.418;7.572;2022-08-19T05:44:50;100052.22;;;18.49;71.93
45888;BME280;31595;51.418;7.572;2022-08-19T05:47:18;100052.38;;;18.59;71.33
45888;BME280;31595;51.418;7.572;2022-08-19T05:49:48;100048.47;;;18.67;71.51
45888;BME280;31595;51.418;7.572;2022-08-19T05:52:18;100055.94;;;18.79;71.27
45888;BME280;31595;51.418;7.572;2022-08-19T05:54:46;100045.69;;;18.94;70.89
45888;BME280;31595;51.418;7.572;2022-08-19T05:57:14;100040.19;;;19.05;70.68
45888;BME280;31595;51.418;7.572;2022-08-19T05:59:42;100040.25;;;19.12;70.50
45888;BME280;31595;51.418;7.572;2022-08-19T06:02:11;100050.81;;;19.19;69.57
45888;BME280;31595;51.418;7.572;2022-08-19T06:04:39;100045.28;;;19.26;69.13
45888;BME280;31595;51.418;7.572;2022-08-19T06:07:09;100048.56;;;19.32;68.86
45888;BME280;31595;51.418;7.572;2022-08-19T06:09:37;100043.81;;;19.39;68.57
45888;BME280;31595;51.418;7.572;2022-08-19T06:12:04;100042.72;;;19.47;68.28
45888;BME280;31595;51.418;7.572;2022-08-19T06:14:34;100038.34;;;19.54;68.03
45888;BME280;31595;51.418;7.572;2022-08-19T06:17:02;100041.34;;;19.68;67.91
45888;BME280;31595;51.418;7.572;2022-08-19T06:19:30;100042.72;;;19.81;67.59
45888;BME280;31595;51.418;7.572;2022-08-19T06:21:59;100050.50;;;19.92;67.41
45888;BME280;31595;51.418;7.572;2022-08-19T06:24:29;100052.66;;;20.05;67.15
45888;BME280;31595;51.418;7.572;2022-08-19T06:26:58;100046.66;;;20.14;66.78
45888;BME280;31595;51.418;7.572;2022-08-19T06:29:26;100052.38;;;20.21;66.56
45888;BME280;31595;51.418;7.572;2022-08-19T06:31:57;100056.84;;;20.22;66.71
45888;BME280;31595;51.418;7.572;2022-08-19T06:34:26;100051.19;;;20.22;66.97
45888;BME280;31595;51.418;7.572;2022-08-19T06:36:57;100050.06;;;20.31;66.63
45888;BME280;31595;51.418;7.572;2022-08-19T06:39:31;100046.28;;;20.19;67.09
45888;BME280;31595;51.418;7.572;2022-08-19T06:42:00;100048.00;;;20.27;66.82
45888;BME280;31595;51.418;7.572;2022-08-19T06:44:30;100051.72;;;20.39;66.81
45888;BME280;31595;51.418;7.572;2022-08-19T06:47:03;100055.44;;;20.50;66.42
45888;BME280;31595;51.418;7.572;2022-08-19T06:49:32;100056.78;;;20.63;66.10
45888;BME280;31595;51.418;7.572;2022-08-19T06:52:00;100056.50;;;20.79;65.62
45888;BME280;31595;51.418;7.572;2022-08-19T06:54:29;100047.75;;;21.02;64.92
45888;BME280;31595;51.418;7.572;2022-08-19T06:56:58;100052.69;;;21.20;64.42
45888;BME280;31595;51.418;7.572;2022-08-19T06:59:28;100049.56;;;21.43;63.71
45888;BME280;31595;51.418;7.572;2022-08-19T07:01:59;100049.25;;;21.69;62.72
45888;BME280;31595;51.418;7.572;2022-08-19T07:04:30;100046.88;;;21.86;62.30
45888;BME280;31595;51.418;7.572;2022-08-19T07:07:01;100038.38;;;22.07;61.59
45888;BME280;31595;51.418;7.572;2022-08-19T07:09:30;100050.59;;;22.26;61.28
45888;BME280;31595;51.418;7.572;2022-08-19T07:11:58;100053.81;;;22.46;60.80
45888;BME280;31595;51.418;7.572;2022-08-19T07:14:27;100049.75;;;22.79;59.89
45888;BME280;31595;51.418;7.572;2022-08-19T07:16:56;100050.50;;;23.08;59.23
45888;BME280;31595;51.418;7.572;2022-08-19T07:19:25;100053.63;;;23.46;57.90
45888;BME280;31595;51.418;7.572;2022-08-19T07:21:54;100055.03;;;23.90;56.71
45888;BME280;31595;51.418;7.572;2022-08-19T07:24:23;100056.81;;;24.26;56.01
45888;BME280;31595;51.418;7.572;2022-08-19T07:26:55;100060.97;;;25.08;54.34
45888;BME280;31595;51.418;7.572;2022-08-19T07:29:23;100052.31;;;25.80;51.91
45888;BME280;31595;51.418;7.572;2022-08-19T07:31:51;100065.06;;;26.57;50.28
45888;BME280;31595;51.418;7.572;2022-08-19T07:34:18;100063.56;;;27.36;47.88
45888;BME280;31595;51.418;7.572;2022-08-19T07:36:46;100054.69;;;28.07;46.57
45888;BME280;31595;51.418;7.572;2022-08-19T07:39:15;100052.75;;;28.69;45.41
45888;BME280;31595;51.418;7.572;2022-08-19T07:41:43;100057.41;;;29.25;43.69
45888;BME280;31595;51.418;7.572;2022-08-19T07:44:13;100061.13;;;29.81;42.18
45888;BME280;31595;51.418;7.572;2022-08-19T07:46:43;100069.66;;;30.23;41.20
45888;BME280;31595;51.418;7.572;2022-08-19T07:49:11;100056.38;;;30.64;41.50
45888;BME280;31595;51.418;7.572;2022-08-19T07:51:45;100067.75;;;31.15;39.73
45888;BME280;31595;51.418;7.572;2022-08-19T07:54:13;100078.34;;;31.40;39.29
45888;BME280;31595;51.418;7.572;2022-08-19T07:56:40;100074.34;;;31.38;39.08
45888;BME280;31595;51.418;7.572;2022-08-19T07:59:08;100075.81;;;31.64;38.59
45888;BME280;31595;51.418;7.572;2022-08-19T08:01:38;100079.91;;;31.76;38.18
45888;BME280;31595;51.418;7.572;2022-08-19T08:04:06;100077.63;;;31.71;38.27
45888;BME280;31595;51.418;7.572;2022-08-19T08:06:51;100085.13;;;31.68;38.04
45888;BME280;31595;51.418;7.572;2022-08-19T08:09:35;100084.00;;;31.66;38.57
45888;BME280;31595;51.418;7.572;2022-08-19T08:12:05;100083.16;;;31.87;37.90
45888;BME280;31595;51.418;7.572;2022-08-19T08:14:36;100074.00;;;31.58;38.61
45888;BME280;31595;51.418;7.572;2022-08-19T08:17:06;100072.72;;;32.03;38.04
45888;BME280;31595;51.418;7.572;2022-08-19T08:19:34;100075.94;;;32.14;38.36
45888;BME280;31595;51.418;7.572;2022-08-19T08:22:03;100076.88;;;32.51;37.18
45888;BME280;31595;51.418;7.572;2022-08-19T08:24:32;100071.59;;;33.18;36.03
45888;BME280;31595;51.418;7.572;2022-08-19T08:27:00;100073.63;;;33.73;35.13
45888;BME280;31595;51.418;7.572;2022-08-19T08:29:29;100080.47;;;34.36;34.09
45888;BME280;31595;51.418;7.572;2022-08-19T08:31:57;100077.81;;;35.05;32.99
45888;BME280;31595;51.418;7.572;2022-08-19T08:34:26;100075.34;;;35.67;31.96
45888;BME280;31595;51.418;7.572;2022-08-19T08:36:53;100079.50;;;36.75;30.52
45888;BME280;31595;51.418;7.572;2022-08-19T08:39:20;100074.84;;;37.25;29.50
45888;BME280;31595;51.418;7.572;2022-08-19T08:41:53;100070.47;;;38.13;27.87
45888;BME280;31595;51.418;7.572;2022-08-19T08:44:28;100069.25;;;39.17;26.75
45888;BME280;31595;51.418;7.572;2022-08-19T08:47:02;100079.53;;;38.58;26.99
45888;BME280;31595;51.418;7.572;2022-08-19T08:49:40;100076.91;;;39.21;26.55
45888;BME280;31595;51.418;7.572;2022-08-19T08:52:10;100076.84;;;39.86;25.02
45888;BME280;31595;51.418;7.572;2022-08-19T08:54:40;100066.44;;;40.64;24.76
45888;BME280;31595;51.418;7.572;2022-08-19T08:57:14;100062.81;;;41.64;23.40
45888;BME280;31595;51.418;7.572;2022-08-19T08:59:43;100064.66;;;42.57;22.28
45888;BME280;31595;51.418;7.572;2022-08-19T09:02:12;100065.16;;;43.05;21.34
45888;BME280;31595;51.418;7.572;2022-08-19T09:04:41;100066.25;;;43.78;20.16
45888;BME280;31595;51.418;7.572;2022-08-19T09:07:24;100066.75;;;44.28;19.67
45888;BME280;31595;51.418;7.572;2022-08-19T09:09:58;100064.94;;;42.78;21.42
45888;BME280;31595;51.418;7.572;2022-08-19T09:12:36;100066.75;;;42.02;22.16
45888;BME280;31595;51.418;7.572;2022-08-19T09:15:09;100069.84;;;41.44;22.68
45888;BME280;31595;51.418;7.572;2022-08-19T09:17:37;100077.09;;;40.39;24.21
45888;BME280;31595;51.418;7.572;2022-08-19T09:20:14;100078.56;;;39.27;24.50
45888;BME280;31595;51.418;7.572;2022-08-19T09:22:43;100074.81;;;39.27;25.51
45888;BME280;31595;51.418;7.572;2022-08-19T09:25:11;100081.28;;;40.66;23.81
45888;BME280;31595;51.418;7.572;2022-08-19T09:27:40;100067.97;;;42.18;21.87
45888;BME280;31595;51.418;7.572;2022-08-19T09:30:11;100059.66;;;41.92;22.10
45888;BME280;31595;51.418;7.572;2022-08-19T09:32:39;100071.50;;;42.35;21.82
45888;BME280;31595;51.418;7.572;2022-08-19T09:35:10;100063.28;;;42.04;21.49
45888;BME280;31595;51.418;7.572;2022-08-19T09:37:39;100075.34;;;41.00;22.46
45888;BME280;31595;51.418;7.572;2022-08-19T09:40:07;100079.56;;;41.57;22.39
45888;BME280;31595;51.418;7.572;2022-08-19T09:42:35;100071.53;;;42.05;21.79
45888;BME280;31595;51.418;7.572;2022-08-19T09:45:03;100061.97;;;41.69;21.72
45888;BME280;31595;51.418;7.572;2022-08-19T09:47:30;100065.94;;;40.43;23.18
45888;BME280;31595;51.418;7.572;2022-08-19T09:49:58;100073.88;;;39.52;23.99
45888;BME280;31595;51.418;7.572;2022-08-19T09:52:26;100078.16;;;40.25;23.29
45888;BME280;31595;51.418;7.572;2022-08-19T09:54:54;100069.44;;;41.17;21.86
45888;BME280;31595;51.418;7.572;2022-08-19T09:57:21;100065.22;;;41.01;21.98
45888;BME280;31595;51.418;7.572;2022-08-19T09:59:48;100066.47;;;40.25;22.72
45888;BME280;31595;51.418;7.572;2022-08-19T10:02:15;100064.34;;;41.29;21.45
45888;BME280;31595;51.418;7.572;2022-08-19T10:04:44;100076.09;;;41.12;21.66
45888;BME280;31595;51.418;7.572;2022-08-19T10:07:30;100074.47;;;39.90;22.58
45888;BME280;31595;51.418;7.572;2022-08-19T10:09:57;100083.38;;;38.82;23.56
45888;BME280;31595;51.418;7.572;2022-08-19T10:12:25;100075.88;;;38.69;24.63
45888;BME280;31595;51.418;7.572;2022-08-19T10:14:52;100074.38;;;38.05;25.13
45888;BME280;31595;51.418;7.572;2022-08-19T10:17:20;100078.13;;;38.11;24.54
45888;BME280;31595;51.418;7.572;2022-08-19T10:19:47;100068.31;;;38.89;23.91
45888;BME280;31595;51.418;7.572;2022-08-19T10:22:14;100074.19;;;40.22;22.77
45888;BME280;31595;51.418;7.572;2022-08-19T10:24:43;100057.53;;;41.51;21.08
45888;BME280;31595;51.418;7.572;2022-08-19T10:27:10;100053.63;;;42.88;19.96
45888;BME280;31595;51.418;7.572;2022-08-19T10:29:39;100053.28;;;44.06;19.20
45888;BME280;31595;51.418;7.572;2022-08-19T10:32:07;100057.19;;;44.54;18.19
45888;BME280;31595;51.418;7.572;2022-08-19T10:34:36;100052.41;;;45.31;17.48
45888;BME280;31595;51.418;7.572;2022-08-19T10:37:05;100064.75;;;45.16;17.53
45888;BME280;31595;51.418;7.572;2022-08-19T10:39:35;100053.66;;;45.09;17.41
45888;BME280;31595;51.418;7.572;2022-08-19T10:42:07;100045.28;;;44.06;18.33
45888;BME280;31595;51.418;7.572;2022-08-19T10:44:36;100042.03;;;43.21;18.96
45888;BME280;31595;51.418;7.572;2022-08-19T10:47:04;100051.78;;;42.11;20.33
45888;BME280;31595;51.418;7.572;2022-08-19T10:49:31;100050.63;;;41.01;21.62
45888;BME280;31595;51.418;7.572;2022-08-19T10:52:18;100052.41;;;41.27;20.90
45888;BME280;31595;51.418;7.572;2022-08-19T10:55:00;100049.16;;;42.08;20.66
45888;BME280;31595;51.418;7.572;2022-08-19T10:57:46;100043.63;;;41.98;20.72
45888;BME280;31595;51.418;7.572;2022-08-19T11:00:14;100042.78;;;42.58;19.73
45888;BME280;31595;51.418;7.572;2022-08-19T11:02:41;100052.16;;;42.57;19.76
45888;BME280;31595;51.418;7.572;2022-08-19T11:05:09;100042.78;;;43.59;18.79
45888;BME280;31595;51.418;7.572;2022-08-19T11:07:38;100038.34;;;44.04;18.51
45888;BME280;31595;51.418;7.572;2022-08-19T11:10:07;100038.72;;;44.13;18.16
45888;BME280;31595;51.418;7.572;2022-08-19T11:12:36;100037.19;;;43.04;18.77
45888;BME280;31595;51.418;7.572;2022-08-19T11:15:08;100038.88;;;41.95;19.93
45888;BME280;31595;51.418;7.572;2022-08-19T11:17:37;100043.66;;;41.21;20.99
45888;BME280;31595;51.418;7.572;2022-08-19T11:20:07;100035.19;;;40.14;22.35
45888;BME280;31595;51.418;7.572;2022-08-19T11:22:34;100039.84;;;39.15;23.34
45888;BME280;31595;51.418;7.572;2022-08-19T11:25:02;100030.84;;;38.16;24.32
45888;BME280;31595;51.418;7.572;2022-08-19T11:27:30;100033.00;;;36.70;25.97
45888;BME280;31595;51.418;7.572;2022-08-19T11:29:57;100031.53;;;36.24;26.74
45888;BME280;31595;51.418;7.572;2022-08-19T11:32:26;100033.69;;;35.79;26.96
45888;BME280;31595;51.418;7.572;2022-08-19T11:34:53;100035.47;;;35.62;27.23
45888;BME280;31595;51.418;7.572;2022-08-19T11:37:20;100036.59;;;35.10;28.38
45888;BME280;31595;51.418;7.572;2022-08-19T11:39:48;100035.91;;;34.76;28.67
45888;BME280;31595;51.418;7.572;2022-08-19T11:42:17;100030.94;;;34.44;28.37
45888;BME280;31595;51.418;7.572;2022-08-19T11:45:03;100022.44;;;34.07;29.22
45888;BME280;31595;51.418;7.572;2022-08-19T11:47:31;100026.03;;;34.59;28.68
45888;BME280;31595;51.418;7.572;2022-08-19T11:49:59;100015.94;;;36.22;26.19
45888;BME280;31595;51.418;7.572;2022-08-19T11:52:26;100006.84;;;36.90;25.67
45888;BME280;31595;51.418;7.572;2022-08-19T11:54:55;100017.72;;;38.00;24.60
45888;BME280;31595;51.418;7.572;2022-08-19T11:57:22;100017.31;;;39.16;23.39
45888;BME280;31595;51.418;7.572;2022-08-19T11:59:51;100019.00;;;39.45;22.84
45888;BME280;31595;51.418;7.572;2022-08-19T12:02:18;100018.81;;;38.94;23.48
45888;BME280;31595;51.418;7.572;2022-08-19T12:04:48;100021.09;;;38.62;23.51
45888;BME280;31595;51.418;7.572;2022-08-19T12:07:16;100017.72;;;38.86;23.04
45888;BME280;31595;51.418;7.572;2022-08-19T12:09:43;100023.44;;;38.64;23.01
45888;BME280;31595;51.418;7.572;2022-08-19T12:12:11;100021.44;;;38.01;22.83
45888;BME280;31595;51.418;7.572;2022-08-19T12:14:38;100022.75;;;37.15;22.75
45888;BME280;31595;51.418;7.572;2022-08-19T12:17:05;100025.06;;;37.37;22.81
45888;BME280;31595;51.418;7.572;2022-08-19T12:19:35;100024.88;;;38.36;21.91
45888;BME280;31595;51.418;7.572;2022-08-19T12:22:04;100020.50;;;38.15;21.96
45888;BME280;31595;51.418;7.572;2022-08-19T12:24:33;100018.53;;;38.87;22.30
45888;BME280;31595;51.418;7.572;2022-08-19T12:27:01;100012.06;;;39.37;22.10
45888;BME280;31595;51.418;7.572;2022-08-19T12:29:29;100018.88;;;39.00;22.08
45888;BME280;31595;51.418;7.572;2022-08-19T12:31:57;100023.50;;;39.52;21.95
45888;BME280;31595;51.418;7.572;2022-08-19T12:34:27;100008.66;;;40.29;21.31
45888;BME280;31595;51.418;7.572;2022-08-19T12:36:57;100018.91;;;40.64;20.72
45888;BME280;31595;51.418;7.572;2022-08-19T12:39:26;100007.22;;;41.22;20.78
45888;BME280;31595;51.418;7.572;2022-08-19T12:41:53;100004.09;;;41.14;20.37
45888;BME280;31595;51.418;7.572;2022-08-19T12:44:21;100008.03;;;40.58;20.71
45888;BME280;31595;51.418;7.572;2022-08-19T12:46:49;100001.75;;;40.37;20.85
45888;BME280;31595;51.418;7.572;2022-08-19T12:49:16;100001.47;;;39.34;21.78
45888;BME280;31595;51.418;7.572;2022-08-19T12:51:43;99998.63;;;39.73;22.09
45888;BME280;31595;51.418;7.572;2022-08-19T12:54:12;99997.56;;;39.99;22.06
45888;BME280;31595;51.418;7.572;2022-08-19T12:56:41;99989.03;;;40.35;21.32
45888;BME280;31595;51.418;7.572;2022-08-19T12:59:09;99991.44;;;40.14;21.07
45888;BME280;31595;51.418;7.572;2022-08-19T13:01:37;99991.41;;;40.36;20.90